Time;durP1;ratioP1;P1;durP2;ratioP2;P2;SDS_P1;SDS_P2;PMS_P1;PMS_P2;Temp;Humidity;BMP_temperature;BMP_pressure;BME280_temperature;BME280_humidity;BME280_pressure;Samples;Min_cycle;Max_cycle;Signal;HPM_P1;HPM_P2
2023/04/29 00:00:52;;;;;;;2.40;2.17;;;;;;;;;;5068598;28;20199;-60
2023/04/29 00:03:19;;;;;;;4.73;2.30;;;;;;;;;;5064897;28;20226;-60
2023/04/29 00:05:46;;;;;;;1.90;1.80;;;;;;;;;;5060882;28;20741;-60
2023/04/29 00:08:13;;;;;;;2.87;2.67;;;;;;;;;;5066758;28;20257;-60
2023/04/29 00:10:41;;;;;;;2.42;2.22;;;;;;;;;;5056617;28;20199;-60
2023/04/29 00:13:08;;;;;;;2.40;2.30;;;;;;;;;;5067010;28;20351;-60
2023/04/29 00:15:36;;;;;;;2.00;1.90;;;;;;;;;;5067373;28;21494;-60
2023/04/29 00:18:04;;;;;;;2.33;2.03;;;;;;;;;;5068613;28;20288;-60
2023/04/29 00:20:31;;;;;;;2.80;2.60;;;;;;;;;;5060421;28;20401;-60
2023/04/29 00:22:58;;;;;;;2.17;2.07;;;;;;;;;;5064144;28;20242;-60
2023/04/29 00:25:25;;;;;;;2.40;2.30;;;;;;;;;;5067412;28;20264;-60
2023/04/29 00:27:52;;;;;;;5.53;2.47;;;;;;;;;;5048508;28;20261;-60
2023/04/29 00:30:19;;;;;;;3.20;2.10;;;;;;;;;;5047232;28;20269;-60
2023/04/29 00:32:46;;;;;;;3.73;2.60;;;;;;;;;;5047622;28;20255;-60
2023/04/29 00:35:15;;;;;;;1.98;1.88;;;;;;;;;;5047762;28;20224;-60
2023/04/29 00:37:42;;;;;;;2.33;2.23;;;;;;;;;;5047996;28;20204;-60
2023/04/29 00:40:10;;;;;;;2.50;2.33;;;;;;;;;;5048258;28;20791;-60
2023/04/29 00:42:37;;;;;;;1.87;1.87;;;;;;;;;;5047430;28;20278;-60
2023/04/29 00:45:04;;;;;;;2.40;2.30;;;;;;;;;;5065635;28;20221;-60
2023/04/29 00:47:31;;;;;;;2.40;2.30;;;;;;;;;;5057007;28;20219;-60
2023/04/29 00:49:58;;;;;;;1.70;1.60;;;;;;;;;;5057462;28;20252;-60
2023/04/29 00:52:27;;;;;;;2.28;2.08;;;;;;;;;;5068040;28;20291;-60
2023/04/29 00:54:54;;;;;;;1.40;1.30;;;;;;;;;;5060345;28;20253;-61
2023/04/29 00:57:21;;;;;;;2.20;2.10;;;;;;;;;;5066958;28;20217;-61
2023/04/29 00:59:49;;;;;;;2.00;1.90;;;;;;;;;;5046927;28;20302;-61
2023/04/29 01:02:16;;;;;;;1.73;1.73;;;;;;;;;;5046070;28;20277;-59
2023/04/29 01:04:43;;;;;;;2.37;2.17;;;;;;;;;;5046381;28;20200;-60
2023/04/29 01:07:13;;;;;;;2.25;2.00;;;;;;;;;;5057476;28;20298;-60
2023/04/29 01:09:54;;;;;;;1.93;1.83;;;;;;;;;;5063766;28;20340;-60
2023/04/29 01:12:27;;;;;;;2.53;2.10;;;;;;;;;;5067360;28;20325;-60
2023/04/29 01:14:55;;;;;;;1.80;1.80;;;;;;;;;;5066477;28;20234;-60
2023/04/29 01:17:26;;;;;;;2.20;2.07;;;;;;;;;;5055662;28;20213;-60
2023/04/29 01:19:55;;;;;;;1.83;1.80;;;;;;;;;;5066282;28;20238;-60
2023/04/29 01:22:22;;;;;;;1.87;1.77;;;;;;;;;;5049118;28;20236;-61
2023/04/29 01:24:51;;;;;;;1.33;1.27;;;;;;;;;;5048562;28;20588;-60
2023/04/29 01:27:24;;;;;;;1.77;1.77;;;;;;;;;;5057936;28;20233;-60
2023/04/29 01:29:53;;;;;;;2.30;1.40;;;;;;;;;;5047190;28;20214;-60
2023/04/29 01:32:25;;;;;;;3.27;1.77;;;;;;;;;;5047039;28;20682;-60
2023/04/29 01:34:55;;;;;;;1.50;1.50;;;;;;;;;;5058928;28;20693;-60
2023/04/29 01:37:26;;;;;;;1.40;1.40;;;;;;;;;;5063915;28;20272;-60
2023/04/29 01:39:58;;;;;;;2.23;1.70;;;;;;;;;;5058229;28;20246;-60
2023/04/29 01:42:29;;;;;;;1.70;1.67;;;;;;;;;;5058116;28;20231;-60
2023/04/29 01:44:57;;;;;;;1.80;1.70;;;;;;;;;;5050637;28;20208;-60
2023/04/29 01:47:25;;;;;;;1.87;1.80;;;;;;;;;;5061861;28;20203;-60
2023/04/29 01:49:52;;;;;;;3.50;1.60;;;;;;;;;;5049745;28;20238;-60
2023/04/29 01:52:20;;;;;;;5.70;1.97;;;;;;;;;;5049046;28;20200;-60
2023/04/29 01:54:47;;;;;;;1.40;1.40;;;;;;;;;;5064073;28;20313;-60
2023/04/29 01:57:15;;;;;;;1.27;1.27;;;;;;;;;;5066299;28;20256;-60
2023/04/29 01:59:42;;;;;;;1.30;1.30;;;;;;;;;;5049442;28;20212;-60
2023/04/29 02:02:09;;;;;;;1.87;1.73;;;;;;;;;;5046457;28;20219;-60
2023/04/29 02:04:36;;;;;;;1.63;1.60;;;;;;;;;;5046059;28;20734;-60
2023/04/29 02:07:03;;;;;;;1.57;1.47;;;;;;;;;;5046173;28;20199;-60
2023/04/29 02:09:30;;;;;;;1.83;1.73;;;;;;;;;;5046425;28;20616;-59
2023/04/29 02:11:57;;;;;;;1.97;1.87;;;;;;;;;;5046219;28;20211;-60
2023/04/29 02:14:26;;;;;;;1.40;1.40;;;;;;;;;;5046002;28;20273;-59
2023/04/29 02:16:53;;;;;;;3.07;1.60;;;;;;;;;;5063117;28;20211;-59
2023/04/29 02:19:20;;;;;;;1.50;1.40;;;;;;;;;;5054485;28;20228;-60
2023/04/29 02:21:47;;;;;;;1.67;1.60;;;;;;;;;;5049824;28;20857;-60
2023/04/29 02:24:14;;;;;;;3.63;1.97;;;;;;;;;;5052591;28;20256;-60
2023/04/29 02:26:41;;;;;;;1.37;1.27;;;;;;;;;;5048494;28;20210;-60
2023/04/29 02:29:08;;;;;;;2.33;1.63;;;;;;;;;;5055158;28;20256;-60
2023/04/29 02:31:37;;;;;;;2.07;1.97;;;;;;;;;;5050602;28;20294;-60
2023/04/29 02:34:04;;;;;;;1.77;1.67;;;;;;;;;;5060340;28;20280;-60
2023/04/29 02:36:31;;;;;;;1.17;1.17;;;;;;;;;;5066113;28;20234;-60
2023/04/29 02:38:59;;;;;;;1.80;1.80;;;;;;;;;;5064889;28;20729;-59
2023/04/29 02:41:26;;;;;;;1.53;1.43;;;;;;;;;;5064933;28;20729;-60
2023/04/29 02:43:53;;;;;;;1.30;1.30;;;;;;;;;;5060674;28;20250;-60
2023/04/29 02:46:20;;;;;;;1.63;1.40;;;;;;;;;;5056130;28;20208;-60
2023/04/29 02:48:49;;;;;;;1.53;1.30;;;;;;;;;;5047589;28;20804;-60
2023/04/29 02:51:16;;;;;;;1.90;1.80;;;;;;;;;;5065650;28;20261;-59
2023/04/29 02:53:43;;;;;;;1.50;1.50;;;;;;;;;;5053474;28;20257;-60
2023/04/29 02:56:10;;;;;;;1.50;1.50;;;;;;;;;;5068733;28;20222;-59
2023/04/29 02:58:37;;;;;;;1.57;1.57;;;;;;;;;;5059664;28;20210;-60
2023/04/29 03:01:04;;;;;;;1.83;1.70;;;;;;;;;;5050177;28;20257;-60
2023/04/29 03:03:31;;;;;;;1.53;1.47;;;;;;;;;;5060699;28;20317;-60
2023/04/29 03:05:59;;;;;;;1.40;1.40;;;;;;;;;;5053864;28;20245;-60
2023/04/29 03:08:27;;;;;;;1.60;1.50;;;;;;;;;;5057385;28;20207;-60
2023/04/29 03:10:54;;;;;;;1.33;1.33;;;;;;;;;;5049922;28;20258;-60
2023/04/29 03:13:21;;;;;;;1.87;1.77;;;;;;;;;;5050754;28;20215;-60
2023/04/29 03:15:48;;;;;;;1.80;1.43;;;;;;;;;;5049867;28;20228;-60
2023/04/29 03:18:15;;;;;;;1.57;1.57;;;;;;;;;;5049977;28;20204;-60
2023/04/29 03:20:42;;;;;;;1.83;1.73;;;;;;;;;;5049994;28;20223;-60
2023/04/29 03:23:10;;;;;;;1.13;1.13;;;;;;;;;;5050395;28;20277;-60
2023/04/29 03:25:37;;;;;;;1.40;1.40;;;;;;;;;;5069553;28;20207;-60
2023/04/29 03:28:04;;;;;;;1.77;1.27;;;;;;;;;;5069180;28;20642;-60
2023/04/29 03:30:31;;;;;;;1.80;1.70;;;;;;;;;;5053676;28;20679;-59
2023/04/29 03:32:58;;;;;;;1.20;1.20;;;;;;;;;;5060177;28;20676;-60
2023/04/29 03:35:25;;;;;;;1.27;1.27;;;;;;;;;;5049603;28;20235;-60
2023/04/29 03:37:52;;;;;;;4.50;1.30;;;;;;;;;;5054802;28;20273;-60
2023/04/29 03:40:21;;;;;;;1.37;1.10;;;;;;;;;;5069611;28;20207;-59
2023/04/29 03:42:48;;;;;;;1.20;1.10;;;;;;;;;;5057210;28;20235;-59
2023/04/29 03:45:15;;;;;;;1.17;1.17;;;;;;;;;;5069486;28;20211;-59
2023/04/29 03:47:42;;;;;;;0.90;0.90;;;;;;;;;;5066037;28;20261;-59
2023/04/29 03:50:09;;;;;;;1.03;1.03;;;;;;;;;;5058222;28;20199;-59
2023/04/29 03:52:36;;;;;;;3.13;1.60;;;;;;;;;;5066002;28;20692;-58
2023/04/29 03:55:04;;;;;;;1.43;1.40;;;;;;;;;;5049324;28;20702;-58
2023/04/29 03:57:32;;;;;;;2.00;1.10;;;;;;;;;;5050556;28;20208;-59
2023/04/29 03:59:59;;;;;;;1.10;1.03;;;;;;;;;;5049196;28;20212;-59
2023/04/29 04:02:27;;;;;;;1.00;1.00;;;;;;;;;;5048797;28;20732;-59
2023/04/29 04:04:54;;;;;;;3.30;1.30;;;;;;;;;;5047458;28;20295;-59
2023/04/29 04:07:21;;;;;;;2.87;1.30;;;;;;;;;;5048347;28;20693;-59
2023/04/29 04:09:48;;;;;;;1.17;1.17;;;;;;;;;;5050605;28;20212;-59
2023/04/29 04:12:15;;;;;;;1.40;0.97;;;;;;;;;;5057750;28;20195;-58
2023/04/29 04:14:44;;;;;;;1.47;1.40;;;;;;;;;;5063806;28;20219;-58
2023/04/29 04:17:11;;;;;;;1.93;1.37;;;;;;;;;;5062310;28;20222;-59
2023/04/29 04:19:38;;;;;;;1.93;1.60;;;;;;;;;;5068535;28;20258;-59
2023/04/29 04:22:06;;;;;;;2.20;2.10;;;;;;;;;;5057212;28;20336;-59
2023/04/29 04:24:33;;;;;;;1.73;1.70;;;;;;;;;;5050971;28;20207;-59
2023/04/29 04:27:00;;;;;;;2.30;2.20;;;;;;;;;;5065470;28;20325;-59
2023/04/29 04:29:27;;;;;;;2.43;2.33;;;;;;;;;;5067741;28;20247;-59
2023/04/29 04:31:56;;;;;;;3.23;3.03;;;;;;;;;;5060367;28;20269;-61
2023/04/29 04:34:23;;;;;;;3.17;2.50;;;;;;;;;;5048726;28;20245;-60
2023/04/29 04:36:50;;;;;;;3.90;2.93;;;;;;;;;;5050434;28;20228;-60
2023/04/29 04:39:17;;;;;;;3.03;2.77;;;;;;;;;;5065913;28;20199;-60
2023/04/29 04:41:44;;;;;;;4.27;3.47;;;;;;;;;;5060609;28;20333;-60
2023/04/29 04:44:12;;;;;;;7.33;3.50;;;;;;;;;;5056566;28;20296;-59
2023/04/29 04:46:39;;;;;;;3.20;2.90;;;;;;;;;;5053513;28;20199;-60
2023/04/29 04:49:07;;;;;;;5.53;3.77;;;;;;;;;;5068103;28;20203;-60
2023/04/29 04:51:34;;;;;;;5.57;3.60;;;;;;;;;;5063916;28;20200;-59
2023/04/29 04:54:01;;;;;;;4.20;3.80;;;;;;;;;;5048429;28;20619;-59
2023/04/29 04:56:28;;;;;;;5.53;3.90;;;;;;;;;;5066338;28;20226;-60
2023/04/29 04:58:55;;;;;;;4.80;4.03;;;;;;;;;;5066117;28;20264;-60
2023/04/29 05:01:22;;;;;;;7.47;4.10;;;;;;;;;;5067309;28;20215;-60
2023/04/29 05:03:49;;;;;;;4.53;4.07;;;;;;;;;;5062455;28;20207;-60
2023/04/29 05:06:18;;;;;;;5.27;4.03;;;;;;;;;;5067903;28;20199;-60
2023/04/29 05:08:45;;;;;;;6.10;4.40;;;;;;;;;;5055548;28;20637;-59
2023/04/29 05:11:17;;;;;;;5.10;4.43;;;;;;;;;;5051091;28;20207;-59
2023/04/29 05:13:44;;;;;;;5.20;4.30;;;;;;;;;;5064863;28;20207;-60
2023/04/29 05:16:11;;;;;;;7.63;5.13;;;;;;;;;;5047569;28;20708;-60
2023/04/29 05:18:38;;;;;;;5.37;4.70;;;;;;;;;;5047972;28;20211;-60
2023/04/29 05:21:05;;;;;;;5.53;4.27;;;;;;;;;;5047997;28;20207;-59
2023/04/29 05:23:33;;;;;;;6.17;4.83;;;;;;;;;;5061774;28;20329;-60
2023/04/29 05:26:00;;;;;;;5.17;4.67;;;;;;;;;;5067318;28;20652;-60
2023/04/29 05:28:27;;;;;;;6.23;4.53;;;;;;;;;;5063403;28;20203;-60
2023/04/29 05:30:54;;;;;;;6.87;4.90;;;;;;;;;;5063019;28;20228;-60
2023/04/29 05:33:21;;;;;;;5.43;4.37;;;;;;;;;;5057696;28;20207;-60
2023/04/29 05:35:48;;;;;;;8.63;5.13;;;;;;;;;;5053564;28;20234;-60
2023/04/29 05:38:15;;;;;;;6.40;4.63;;;;;;;;;;5046576;28;20265;-60
2023/04/29 05:40:44;;;;;;;4.90;4.17;;;;;;;;;;5050563;28;20735;-60
2023/04/29 05:43:11;;;;;;;7.10;4.37;;;;;;;;;;5055728;28;20220;-60
2023/04/29 05:45:38;;;;;;;5.80;4.83;;;;;;;;;;5046831;28;20558;-60
2023/04/29 05:48:06;;;;;;;5.70;4.50;;;;;;;;;;5049015;28;20200;-60
2023/04/29 05:50:33;;;;;;;4.70;4.03;;;;;;;;;;5048264;28;20305;-60
2023/04/29 05:53:00;;;;;;;5.27;3.93;;;;;;;;;;5050509;28;20519;-60
2023/04/29 05:55:27;;;;;;;4.38;3.75;;;;;;;;;;5052191;28;20214;-59
2023/04/29 05:57:55;;;;;;;6.70;4.32;;;;;;;;;;5057069;28;20211;-59
2023/04/29 06:00:23;;;;;;;4.15;3.30;;;;;;;;;;5048463;28;20212;-59
2023/04/29 06:02:50;;;;;;;5.45;3.72;;;;;;;;;;5054929;28;20252;-60
2023/04/29 06:05:17;;;;;;;3.70;3.40;;;;;;;;;;5064384;28;20217;-60
2023/04/29 06:07:44;;;;;;;3.38;2.92;;;;;;;;;;5059604;28;20192;-60
2023/04/29 06:10:11;;;;;;;5.28;3.65;;;;;;;;;;5048070;28;20203;-60
2023/04/29 06:12:38;;;;;;;4.40;3.40;;;;;;;;;;5055914;28;20628;-61
2023/04/29 06:15:07;;;;;;;5.60;3.90;;;;;;;;;;5052158;28;20203;-60
2023/04/29 06:17:34;;;;;;;4.13;3.72;;;;;;;;;;5057234;28;20763;-61
2023/04/29 06:20:03;;;;;;;4.07;3.67;;;;;;;;;;5055883;28;20352;-61
2023/04/29 06:22:30;;;;;;;3.40;3.10;;;;;;;;;;5057408;28;20223;-61
2023/04/29 06:24:57;;;;;;;3.63;3.33;;;;;;;;;;5056826;28;20202;-61
2023/04/29 06:27:24;;;;;;;4.03;3.63;;;;;;;;;;5060304;28;20731;-59
2023/04/29 06:29:51;;;;;;;4.70;3.38;;;;;;;;;;5060998;28;20261;-59
2023/04/29 06:32:19;;;;;;;5.35;3.60;;;;;;;;;;5067483;28;20260;-61
2023/04/29 06:34:46;;;;;;;4.38;3.08;;;;;;;;;;5064719;28;20199;-61
2023/04/29 06:37:13;;;;;;;5.80;3.38;;;;;;;;;;5068610;28;20227;-61
2023/04/29 06:39:40;;;;;;;2.90;2.58;;;;;;;;;;5070706;28;20203;-61
2023/04/29 06:42:07;;;;;;;3.10;2.90;;;;;;;;;;5067808;28;20705;-61
2023/04/29 06:44:34;;;;;;;3.63;3.25;;;;;;;;;;5059480;28;20207;-64
2023/04/29 06:47:01;;;;;;;2.33;2.13;;;;;;;;;;5057500;28;20668;-61
2023/04/29 06:49:30;;;;;;;2.13;2.03;;;;;;;;;;5050636;28;20207;-61
2023/04/29 06:51:58;;;;;;;2.92;1.90;;;;;;;;;;5054455;28;20242;-60
2023/04/29 06:54:26;;;;;;;1.85;1.75;;;;;;;;;;5062477;28;20295;-60
2023/04/29 06:56:53;;;;;;;2.58;1.73;;;;;;;;;;5063362;28;20219;-61
2023/04/29 06:59:20;;;;;;;1.83;1.70;;;;;;;;;;5058454;28;20196;-62
2023/04/29 07:01:48;;;;;;;2.95;1.73;;;;;;;;;;5070568;28;20744;-64
2023/04/29 07:04:15;;;;;;;1.98;1.75;;;;;;;;;;5056003;28;20207;-61
2023/04/29 07:06:45;;;;;;;2.00;1.90;;;;;;;;;;5056764;28;20948;-60
2023/04/29 07:09:13;;;;;;;2.33;1.70;;;;;;;;;;5059060;28;20662;-61
2023/04/29 07:11:40;;;;;;;1.88;1.77;;;;;;;;;;5050602;28;20265;-60
2023/04/29 07:14:07;;;;;;;2.00;1.88;;;;;;;;;;5053983;28;20292;-60
2023/04/29 07:16:34;;;;;;;1.85;1.77;;;;;;;;;;5054497;28;20223;-60
2023/04/29 07:19:01;;;;;;;2.15;2.03;;;;;;;;;;5068486;28;20651;-60
2023/04/29 07:21:29;;;;;;;2.17;2.10;;;;;;;;;;5070339;28;20272;-63
2023/04/29 07:23:59;;;;;;;2.45;2.28;;;;;;;;;;5068277;28;20243;-61
2023/04/29 07:26:26;;;;;;;3.10;2.35;;;;;;;;;;5056157;28;20230;-61
2023/04/29 07:28:54;;;;;;;3.45;2.13;;;;;;;;;;5052356;28;20214;-61
2023/04/29 07:31:21;;;;;;;2.50;2.30;;;;;;;;;;5066163;28;20230;-62
2023/04/29 07:33:52;;;;;;;2.20;2.10;;;;;;;;;;5055096;28;20217;-61
2023/04/29 07:36:19;;;;;;;2.03;1.92;;;;;;;;;;5064493;28;20222;-61
2023/04/29 07:38:46;;;;;;;3.30;2.05;;;;;;;;;;5061776;28;20663;-60
2023/04/29 07:41:14;;;;;;;2.25;1.95;;;;;;;;;;5067715;28;20288;-62
2023/04/29 07:43:41;;;;;;;4.20;2.38;;;;;;;;;;5064615;28;20480;-60
2023/04/29 07:46:08;;;;;;;2.47;1.95;;;;;;;;;;5058089;28;20210;-61
2023/04/29 07:48:38;;;;;;;1.98;1.88;;;;;;;;;;5055909;28;20204;-61
2023/04/29 07:51:05;;;;;;;2.35;2.25;;;;;;;;;;5066443;28;20203;-60
2023/04/29 07:53:32;;;;;;;2.55;2.35;;;;;;;;;;5056065;28;20223;-60
2023/04/29 07:55:59;;;;;;;2.42;2.22;;;;;;;;;;5051536;28;20210;-60
2023/04/29 07:58:28;;;;;;;2.83;2.42;;;;;;;;;;5068838;28;20207;-60
2023/04/29 08:00:55;;;;;;;1.98;1.88;;;;;;;;;;5068442;28;20290;-60
2023/04/29 08:03:22;;;;;;;3.00;2.25;;;;;;;;;;5068153;28;20246;-60
2023/04/29 08:05:52;;;;;;;2.30;2.00;;;;;;;;;;5055721;28;20199;-60
2023/04/29 08:08:19;;;;;;;2.20;2.05;;;;;;;;;;5049607;28;20199;-60
2023/04/29 08:10:46;;;;;;;1.60;1.60;;;;;;;;;;5048857;28;20203;-61
2023/04/29 08:13:13;;;;;;;3.00;1.90;;;;;;;;;;5051686;28;20297;-60
2023/04/29 08:15:41;;;;;;;2.17;2.08;;;;;;;;;;5068448;28;20207;-60
2023/04/29 08:18:08;;;;;;;2.13;1.90;;;;;;;;;;5054058;28;20301;-61
2023/04/29 08:20:35;;;;;;;2.80;2.22;;;;;;;;;;5049553;28;20345;-60
2023/04/29 08:23:02;;;;;;;1.55;1.48;;;;;;;;;;5048706;28;20235;-61
2023/04/29 08:25:30;;;;;;;2.58;2.35;;;;;;;;;;5048505;28;20231;-61
2023/04/29 08:27:57;;;;;;;1.92;1.83;;;;;;;;;;5048426;28;20207;-60
2023/04/29 08:30:24;;;;;;;2.40;2.00;;;;;;;;;;5048287;28;20234;-60
2023/04/29 08:32:52;;;;;;;4.78;2.35;;;;;;;;;;5048464;28;20695;-60
2023/04/29 08:35:20;;;;;;;2.50;2.05;;;;;;;;;;5049390;28;20203;-60
2023/04/29 08:37:47;;;;;;;2.33;2.13;;;;;;;;;;5056420;28;20226;-60
2023/04/29 08:40:14;;;;;;;2.40;2.20;;;;;;;;;;5050385;28;20298;-61
2023/04/29 08:42:41;;;;;;;2.67;2.40;;;;;;;;;;5048058;28;20243;-61
2023/04/29 08:45:08;;;;;;;2.22;2.10;;;;;;;;;;5059748;28;20206;-60
2023/04/29 08:47:35;;;;;;;2.03;1.92;;;;;;;;;;5061425;28;20253;-60
2023/04/29 08:50:05;;;;;;;2.95;2.58;;;;;;;;;;5047306;28;20212;-60
2023/04/29 08:52:32;;;;;;;4.22;2.35;;;;;;;;;;5050634;28;20213;-60
2023/04/29 08:55:01;;;;;;;2.20;1.98;;;;;;;;;;5058888;28;20662;-60
2023/04/29 08:57:28;;;;;;;5.00;2.63;;;;;;;;;;5061183;28;20314;-61
2023/04/29 08:59:55;;;;;;;1.92;1.83;;;;;;;;;;5064955;28;20699;-60
2023/04/29 09:02:23;;;;;;;1.90;1.80;;;;;;;;;;5061446;28;20212;-61
2023/04/29 09:04:54;;;;;;;2.47;2.28;;;;;;;;;;5056091;28;20581;-61
2023/04/29 09:07:23;;;;;;;3.30;2.25;;;;;;;;;;5049487;28;20208;-60
2023/04/29 09:09:52;;;;;;;2.50;2.40;;;;;;;;;;5047581;28;20208;-60
2023/04/29 09:12:22;;;;;;;2.53;2.22;;;;;;;;;;5048512;28;20206;-61
2023/04/29 09:14:49;;;;;;;1.73;1.63;;;;;;;;;;5061452;28;20336;-60
2023/04/29 09:17:17;;;;;;;2.35;1.77;;;;;;;;;;5063017;28;20224;-61
2023/04/29 09:19:44;;;;;;;1.83;1.70;;;;;;;;;;5047414;28;20318;-61
2023/04/29 09:22:11;;;;;;;1.48;1.45;;;;;;;;;;5048615;28;20226;-60
2023/04/29 09:24:40;;;;;;;1.65;1.55;;;;;;;;;;5067552;28;20214;-61
2023/04/29 09:27:08;;;;;;;1.40;1.35;;;;;;;;;;5066545;28;20210;-60
2023/04/29 09:29:37;;;;;;;1.38;1.33;;;;;;;;;;5065907;28;20677;-61
2023/04/29 09:32:18;;;;;;;1.75;1.65;;;;;;;;;;5065444;28;20206;-61
2023/04/29 09:34:45;;;;;;;1.90;1.80;;;;;;;;;;5065070;28;20660;-61
2023/04/29 09:37:32;;;;;;;2.05;1.85;;;;;;;;;;5062707;28;20215;-60
2023/04/29 09:40:00;;;;;;;1.40;1.40;;;;;;;;;;5065030;28;20203;-60
2023/04/29 09:42:28;;;;;;;1.13;1.13;;;;;;;;;;5052611;28;20721;-60
2023/04/29 09:44:55;;;;;;;1.60;1.50;;;;;;;;;;5061787;28;20229;-60
2023/04/29 09:47:31;;;;;;;1.75;1.48;;;;;;;;;;5045209;28;20220;-60
2023/04/29 09:50:11;;;;;;;1.70;1.60;;;;;;;;;;5060180;28;20210;-61
2023/04/29 09:52:41;;;;;;;1.83;1.73;;;;;;;;;;5056609;28;20207;-60
2023/04/29 09:55:11;;;;;;;1.42;1.33;;;;;;;;;;5053329;28;20203;-60
2023/04/29 09:57:40;;;;;;;1.45;1.45;;;;;;;;;;5066685;28;20288;-60
2023/04/29 10:00:08;;;;;;;1.85;1.83;;;;;;;;;;5065921;28;20294;-60
2023/04/29 10:02:35;;;;;;;1.50;1.40;;;;;;;;;;5065815;28;20218;-60
2023/04/29 10:05:03;;;;;;;1.83;1.63;;;;;;;;;;5045835;28;20580;-61
2023/04/29 10:07:30;;;;;;;1.30;1.30;;;;;;;;;;5052429;28;20209;-60
2023/04/29 10:09:57;;;;;;;1.40;1.40;;;;;;;;;;5066793;28;20213;-60
2023/04/29 10:12:26;;;;;;;1.25;1.25;;;;;;;;;;5053460;28;20881;-60
2023/04/29 10:15:02;;;;;;;1.95;1.85;;;;;;;;;;5065862;28;20272;-60
2023/04/29 10:17:33;;;;;;;2.00;1.90;;;;;;;;;;5048109;28;20218;-60
2023/04/29 10:20:05;;;;;;;1.30;1.20;;;;;;;;;;5046958;28;20714;-61
2023/04/29 10:22:34;;;;;;;1.73;1.65;;;;;;;;;;5046294;28;20318;-60
2023/04/29 10:25:02;;;;;;;1.80;1.77;;;;;;;;;;5053554;28;20233;-60
2023/04/29 10:27:32;;;;;;;2.42;1.90;;;;;;;;;;5066469;28;20936;-60
2023/04/29 10:30:01;;;;;;;1.95;1.85;;;;;;;;;;5065853;28;20199;-61
2023/04/29 10:32:29;;;;;;;1.80;1.70;;;;;;;;;;5060245;28;20302;-61
2023/04/29 10:34:58;;;;;;;1.90;1.80;;;;;;;;;;5045956;28;20696;-61
2023/04/29 10:37:25;;;;;;;2.17;1.98;;;;;;;;;;5050638;28;20223;-61
2023/04/29 10:39:57;;;;;;;1.85;1.75;;;;;;;;;;5046782;28;20200;-61
2023/04/29 10:42:31;;;;;;;1.88;1.77;;;;;;;;;;5055887;28;20238;-61
2023/04/29 10:45:19;;;;;;;1.70;1.60;;;;;;;;;;5065956;28;20218;-61
2023/04/29 10:48:01;;;;;;;1.60;1.50;;;;;;;;;;5064428;28;20199;-61
2023/04/29 10:50:28;;;;;;;1.60;1.50;;;;;;;;;;5065830;28;20214;-61
2023/04/29 10:52:56;;;;;;;1.85;1.55;;;;;;;;;;5063248;28;20423;-61
2023/04/29 10:55:23;;;;;;;1.50;1.50;;;;;;;;;;5060860;28;20737;-60
2023/04/29 10:57:55;;;;;;;1.85;1.30;;;;;;;;;;5049959;28;20319;-61
2023/04/29 11:00:26;;;;;;;2.08;1.88;;;;;;;;;;5044210;28;20211;-60
2023/04/29 11:02:54;;;;;;;1.50;1.50;;;;;;;;;;5055012;28;20272;-60
2023/04/29 11:05:30;;;;;;;1.60;1.50;;;;;;;;;;5065866;28;20218;-60
2023/04/29 11:08:09;;;;;;;1.50;1.40;;;;;;;;;;5048897;28;20253;-60
2023/04/29 11:10:37;;;;;;;1.73;1.67;;;;;;;;;;5045767;28;20215;-60
2023/04/29 11:13:24;;;;;;;1.77;1.67;;;;;;;;;;5061993;28;20939;-60
2023/04/29 11:15:53;;;;;;;1.60;1.50;;;;;;;;;;5067886;28;20203;-60
2023/04/29 11:18:20;;;;;;;2.20;2.00;;;;;;;;;;5067772;28;20246;-61
2023/04/29 11:21:05;;;;;;;1.50;1.40;;;;;;;;;;5068878;28;20207;-60
2023/04/29 11:23:34;;;;;;;2.53;1.48;;;;;;;;;;5057248;28;20231;-60
2023/04/29 11:26:01;;;;;;;1.88;1.75;;;;;;;;;;5068194;28;20207;-60
2023/04/29 11:28:29;;;;;;;2.20;2.00;;;;;;;;;;5069169;28;20573;-61
2023/04/29 11:30:57;;;;;;;1.60;1.60;;;;;;;;;;5063529;28;21164;-61
2023/04/29 11:33:26;;;;;;;1.63;1.52;;;;;;;;;;5068559;28;20215;-61
2023/04/29 11:35:53;;;;;;;1.38;1.38;;;;;;;;;;5063006;28;20207;-61
2023/04/29 11:38:24;;;;;;;1.58;1.48;;;;;;;;;;5049348;28;20231;-60
2023/04/29 11:40:51;;;;;;;1.50;1.30;;;;;;;;;;5049771;28;20357;-60
2023/04/29 11:43:18;;;;;;;1.80;1.70;;;;;;;;;;5053432;28;20257;-60
2023/04/29 11:45:46;;;;;;;1.35;1.35;;;;;;;;;;5052820;28;20204;-60
2023/04/29 11:48:19;;;;;;;1.88;1.35;;;;;;;;;;5052773;28;20199;-61
2023/04/29 11:50:47;;;;;;;1.20;1.08;;;;;;;;;;5068258;28;20203;-60
2023/04/29 11:53:14;;;;;;;1.25;1.15;;;;;;;;;;5065341;28;20214;-60
2023/04/29 11:55:42;;;;;;;0.80;0.80;;;;;;;;;;5048949;28;20214;-61
2023/04/29 11:58:10;;;;;;;0.90;0.90;;;;;;;;;;5048805;28;20684;-60
2023/04/29 12:00:37;;;;;;;1.00;1.00;;;;;;;;;;5048646;28;20673;-60
2023/04/29 12:03:08;;;;;;;1.00;1.00;;;;;;;;;;5050607;28;20219;-61
2023/04/29 12:05:37;;;;;;;0.80;0.80;;;;;;;;;;5058269;28;20200;-61
2023/04/29 12:08:04;;;;;;;1.10;1.10;;;;;;;;;;5049137;28;20622;-61
2023/04/29 12:10:31;;;;;;;1.05;1.05;;;;;;;;;;5059021;28;20199;-61
2023/04/29 12:12:59;;;;;;;1.13;1.13;;;;;;;;;;5067168;28;20697;-60
2023/04/29 12:15:26;;;;;;;1.00;1.00;;;;;;;;;;5066904;28;20207;-60
2023/04/29 12:17:53;;;;;;;0.90;0.90;;;;;;;;;;5059889;28;20698;-60
2023/04/29 12:20:21;;;;;;;0.98;0.98;;;;;;;;;;5048993;28;20215;-61
2023/04/29 12:22:49;;;;;;;1.20;1.20;;;;;;;;;;5058149;28;20238;-61
2023/04/29 12:25:17;;;;;;;0.82;0.82;;;;;;;;;;5058058;28;20210;-64
2023/04/29 12:27:44;;;;;;;1.25;1.25;;;;;;;;;;5048601;28;20215;-61
2023/04/29 12:30:11;;;;;;;1.27;1.27;;;;;;;;;;5050818;28;20199;-60
2023/04/29 12:32:38;;;;;;;1.00;1.00;;;;;;;;;;5054224;28;20211;-60
2023/04/29 12:35:06;;;;;;;1.00;1.00;;;;;;;;;;5062331;28;20208;-61
2023/04/29 12:37:34;;;;;;;1.02;1.00;;;;;;;;;;5047931;28;20211;-61
2023/04/29 12:40:02;;;;;;;1.13;1.13;;;;;;;;;;5048168;28;20211;-60
2023/04/29 12:42:33;;;;;;;0.90;0.90;;;;;;;;;;5047445;28;20241;-61
2023/04/29 12:45:00;;;;;;;0.95;0.95;;;;;;;;;;5064097;28;20290;-61
2023/04/29 12:47:33;;;;;;;1.30;1.20;;;;;;;;;;5054092;28;20265;-60
2023/04/29 12:50:01;;;;;;;1.10;1.00;;;;;;;;;;5047890;28;20295;-61
2023/04/29 12:52:28;;;;;;;1.10;1.10;;;;;;;;;;5054767;28;20782;-61
2023/04/29 12:54:57;;;;;;;1.17;1.08;;;;;;;;;;5065149;28;20218;-60
2023/04/29 12:57:26;;;;;;;1.08;1.00;;;;;;;;;;5067520;28;20613;-61
2023/04/29 12:59:53;;;;;;;1.00;1.00;;;;;;;;;;5049772;28;20338;-61
2023/04/29 13:02:20;;;;;;;1.00;1.00;;;;;;;;;;5047960;28;20203;-61
2023/04/29 13:04:47;;;;;;;1.20;1.17;;;;;;;;;;5047522;28;20674;-60
2023/04/29 13:07:14;;;;;;;1.20;1.10;;;;;;;;;;5057346;28;20682;-60
2023/04/29 13:09:42;;;;;;;0.90;0.90;;;;;;;;;;5065965;28;20219;-60
2023/04/29 13:12:09;;;;;;;1.40;1.30;;;;;;;;;;5065856;28;20214;-60
2023/04/29 13:14:37;;;;;;;2.92;1.25;;;;;;;;;;5053458;28;20211;-60
2023/04/29 13:17:05;;;;;;;1.30;1.30;;;;;;;;;;5051491;28;20257;-60
2023/04/29 13:19:32;;;;;;;1.50;1.40;;;;;;;;;;5056595;28;20728;-60
2023/04/29 13:21:59;;;;;;;2.47;2.25;;;;;;;;;;5062645;28;20906;-60
2023/04/29 13:24:26;;;;;;;2.80;2.13;;;;;;;;;;5063665;28;20223;-59
2023/04/29 13:26:53;;;;;;;3.35;1.50;;;;;;;;;;5048503;28;20711;-60
2023/04/29 13:29:20;;;;;;;1.02;1.02;;;;;;;;;;5055778;28;20195;-59
2023/04/29 13:31:48;;;;;;;0.90;0.90;;;;;;;;;;5058063;28;20203;-60
2023/04/29 13:34:16;;;;;;;0.70;0.70;;;;;;;;;;5061866;28;20723;-60
2023/04/29 13:36:43;;;;;;;1.20;1.20;;;;;;;;;;5067144;28;20432;-60
2023/04/29 13:39:10;;;;;;;1.00;1.00;;;;;;;;;;5066999;28;20239;-60
2023/04/29 13:41:37;;;;;;;1.27;1.27;;;;;;;;;;5066814;28;20580;-60
2023/04/29 13:44:04;;;;;;;0.95;0.95;;;;;;;;;;5066998;28;20264;-60
2023/04/29 13:46:31;;;;;;;1.15;1.15;;;;;;;;;;5066713;28;20207;-59
2023/04/29 13:49:00;;;;;;;1.10;1.10;;;;;;;;;;5058940;28;20318;-60
2023/04/29 13:51:27;;;;;;;0.85;0.85;;;;;;;;;;5054175;28;20203;-59
2023/04/29 13:53:54;;;;;;;1.10;1.10;;;;;;;;;;5066750;28;20223;-60
2023/04/29 13:56:21;;;;;;;1.30;1.30;;;;;;;;;;5056049;28;20261;-59
2023/04/29 13:58:48;;;;;;;1.55;1.55;;;;;;;;;;5057257;28;20227;-60
2023/04/29 14:01:16;;;;;;;1.40;1.40;;;;;;;;;;5061339;28;20203;-62
2023/04/29 14:03:43;;;;;;;1.05;1.00;;;;;;;;;;5062729;28;20211;-60
2023/04/29 14:06:11;;;;;;;0.82;0.82;;;;;;;;;;5066731;28;20207;-60
2023/04/29 14:08:38;;;;;;;0.85;0.85;;;;;;;;;;5064022;28;20218;-60
2023/04/29 14:11:06;;;;;;;1.25;1.25;;;;;;;;;;5047511;28;20862;-60
2023/04/29 14:13:33;;;;;;;0.93;0.93;;;;;;;;;;5050997;28;20214;-61
2023/04/29 14:16:02;;;;;;;1.52;1.52;;;;;;;;;;5066549;28;20210;-59
2023/04/29 14:18:29;;;;;;;1.17;1.17;;;;;;;;;;5062916;28;20376;-59
2023/04/29 14:20:58;;;;;;;0.82;0.82;;;;;;;;;;5064621;28;20662;-58
2023/04/29 14:23:26;;;;;;;0.98;0.98;;;;;;;;;;5062108;28;20400;-59
2023/04/29 14:25:53;;;;;;;1.05;1.05;;;;;;;;;;5046574;28;20670;-59
2023/04/29 14:28:20;;;;;;;0.70;0.70;;;;;;;;;;5046382;28;20294;-58
2023/04/29 14:30:47;;;;;;;1.30;1.20;;;;;;;;;;5048775;28;20230;-59
2023/04/29 14:33:14;;;;;;;1.20;1.20;;;;;;;;;;5065958;28;20280;-59
2023/04/29 14:35:41;;;;;;;1.10;1.10;;;;;;;;;;5064796;28;20226;-61
2023/04/29 14:38:08;;;;;;;1.65;1.55;;;;;;;;;;5066201;28;20219;-61
2023/04/29 14:40:37;;;;;;;1.33;1.33;;;;;;;;;;5064647;28;20260;-61
2023/04/29 14:43:05;;;;;;;1.40;1.30;;;;;;;;;;5049632;28;20259;-59
2023/04/29 14:45:32;;;;;;;1.13;1.13;;;;;;;;;;5047062;28;20229;-61
2023/04/29 14:47:59;;;;;;;1.13;1.13;;;;;;;;;;5046147;28;20229;-59